sensor_id;sensor_type;location;lat;lon;timestamp;P1;durP1;ratioP1;P2;durP2;ratioP2
45033;SDS011;30771;47.988;-4.186;2023-12-04T00:02:12;44.97;;;5.72;;
45033;SDS011;30771;47.988;-4.186;2023-12-04T00:04:39;37.75;;;6.63;;
45033;SDS011;30771;47.988;-4.186;2023-12-04T00:07:06;41.00;;;6.38;;
45033;SDS011;30771;47.988;-4.186;2023-12-04T00:09:32;34.97;;;4.82;;
45033;SDS011;30771;47.988;-4.186;2023-12-04T00:11:59;44.17;;;5.90;;
45033;SDS011;30771;47.988;-4.186;2023-12-04T00:14:26;35.22;;;4.50;;
45033;SDS011;30771;47.988;-4.186;2023-12-04T00:16:53;39.35;;;4.93;;
45033;SDS011;30771;47.988;-4.186;2023-12-04T00:19:19;45.03;;;6.25;;
45033;SDS011;30771;47.988;-4.186;2023-12-04T00:21:46;37.08;;;5.57;;
45033;SDS011;30771;47.988;-4.186;2023-12-04T00:24:13;56.75;;;8.00;;
45033;SDS011;30771;47.988;-4.186;2023-12-04T00:26:39;65.45;;;6.63;;
45033;SDS011;30771;47.988;-4.186;2023-12-04T00:29:06;51.72;;;6.40;;
45033;SDS011;30771;47.988;-4.186;2023-12-04T00:31:32;55.20;;;7.57;;
45033;SDS011;30771;47.988;-4.186;2023-12-04T00:33:59;49.40;;;6.03;;
45033;SDS011;30771;47.988;-4.186;2023-12-04T00:36:26;53.15;;;6.93;;
45033;SDS011;30771;47.988;-4.186;2023-12-04T00:38:53;42.53;;;5.63;;
45033;SDS011;30771;47.988;-4.186;2023-12-04T00:41:20;43.90;;;7.25;;
45033;SDS011;30771;47.988;-4.186;2023-12-04T00:43:46;42.58;;;5.55;;
45033;SDS011;30771;47.988;-4.186;2023-12-04T00:46:13;42.17;;;6.57;;
45033;SDS011;30771;47.988;-4.186;2023-12-04T00:48:40;44.50;;;5.78;;
45033;SDS011;30771;47.988;-4.186;2023-12-04T00:51:06;48.50;;;6.97;;
45033;SDS011;30771;47.988;-4.186;2023-12-04T00:53:33;46.55;;;6.32;;
45033;SDS011;30771;47.988;-4.186;2023-12-04T00:56:00;56.90;;;5.90;;
45033;SDS011;30771;47.988;-4.186;2023-12-04T00:58:26;53.00;;;6.60;;
45033;SDS011;30771;47.988;-4.186;2023-12-04T01:00:53;50.15;;;5.22;;
45033;SDS011;30771;47.988;-4.186;2023-12-04T01:03:20;50.75;;;6.18;;
45033;SDS011;30771;47.988;-4.186;2023-12-04T01:05:46;43.75;;;5.43;;
45033;SDS011;30771;47.988;-4.186;2023-12-04T01:08:13;43.75;;;6.50;;
45033;SDS011;30771;47.988;-4.186;2023-12-04T01:10:40;44.88;;;6.40;;
45033;SDS011;30771;47.988;-4.186;2023-12-04T01:13:06;47.70;;;5.50;;
45033;SDS011;30771;47.988;-4.186;2023-12-04T01:15:33;39.35;;;5.68;;
45033;SDS011;30771;47.988;-4.186;2023-12-04T01:18:00;47.85;;;5.20;;
45033;SDS011;30771;47.988;-4.186;2023-12-04T01:20:27;48.25;;;6.20;;
45033;SDS011;30771;47.988;-4.186;2023-12-04T01:22:53;40.28;;;4.65;;
45033;SDS011;30771;47.988;-4.186;2023-12-04T01:25:20;41.38;;;5.47;;
45033;SDS011;30771;47.988;-4.186;2023-12-04T01:27:47;35.35;;;4.97;;
45033;SDS011;30771;47.988;-4.186;2023-12-04T01:30:14;40.70;;;4.45;;
45033;SDS011;30771;47.988;-4.186;2023-12-04T01:32:40;33.33;;;5.28;;
45033;SDS011;30771;47.988;-4.186;2023-12-04T01:35:07;40.15;;;5.07;;
45033;SDS011;30771;47.988;-4.186;2023-12-04T01:37:34;37.97;;;4.95;;
45033;SDS011;30771;47.988;-4.186;2023-12-04T01:40:00;37.35;;;5.45;;
45033;SDS011;30771;47.988;-4.186;2023-12-04T01:42:27;30.60;;;4.30;;
45033;SDS011;30771;47.988;-4.186;2023-12-04T01:44:54;33.22;;;4.95;;
45033;SDS011;30771;47.988;-4.186;2023-12-04T01:47:20;42.80;;;5.38;;
45033;SDS011;30771;47.988;-4.186;2023-12-04T01:49:47;36.85;;;5.57;;
45033;SDS011;30771;47.988;-4.186;2023-12-04T01:52:14;45.35;;;5.53;;
45033;SDS011;30771;47.988;-4.186;2023-12-04T01:54:41;32.08;;;4.53;;
45033;SDS011;30771;47.988;-4.186;2023-12-04T01:57:08;40.50;;;4.90;;
45033;SDS011;30771;47.988;-4.186;2023-12-04T01:59:36;41.33;;;6.15;;
45033;SDS011;30771;47.988;-4.186;2023-12-04T02:02:02;42.00;;;5.80;;
45033;SDS011;30771;47.988;-4.186;2023-12-04T02:04:30;37.87;;;5.17;;
45033;SDS011;30771;47.988;-4.186;2023-12-04T02:06:57;40.15;;;4.35;;
45033;SDS011;30771;47.988;-4.186;2023-12-04T02:09:25;38.53;;;6.45;;
45033;SDS011;30771;47.988;-4.186;2023-12-04T02:11:51;30.55;;;4.57;;
45033;SDS011;30771;47.988;-4.186;2023-12-04T02:14:23;43.65;;;4.75;;
45033;SDS011;30771;47.988;-4.186;2023-12-04T02:16:50;35.08;;;5.55;;
45033;SDS011;30771;47.988;-4.186;2023-12-04T02:19:18;33.13;;;4.70;;
45033;SDS011;30771;47.988;-4.186;2023-12-04T02:21:45;32.40;;;4.25;;
45033;SDS011;30771;47.988;-4.186;2023-12-04T02:24:11;45.55;;;6.72;;
45033;SDS011;30771;47.988;-4.186;2023-12-04T02:26:46;37.25;;;5.03;;
45033;SDS011;30771;47.988;-4.186;2023-12-04T02:29:19;40.60;;;6.03;;
45033;SDS011;30771;47.988;-4.186;2023-12-04T02:31:50;39.70;;;5.68;;
45033;SDS011;30771;47.988;-4.186;2023-12-04T02:34:18;39.53;;;4.33;;
45033;SDS011;30771;47.988;-4.186;2023-12-04T02:36:46;42.58;;;4.82;;
45033;SDS011;30771;47.988;-4.186;2023-12-04T02:39:14;27.08;;;4.32;;
45033;SDS011;30771;47.988;-4.186;2023-12-04T02:41:40;37.90;;;5.22;;
45033;SDS011;30771;47.988;-4.186;2023-12-04T02:44:07;39.50;;;5.50;;
45033;SDS011;30771;47.988;-4.186;2023-12-04T02:46:33;35.95;;;5.18;;
45033;SDS011;30771;47.988;-4.186;2023-12-04T02:49:00;33.50;;;4.38;;
45033;SDS011;30771;47.988;-4.186;2023-12-04T02:51:27;36.20;;;4.72;;
45033;SDS011;30771;47.988;-4.186;2023-12-04T02:53:54;39.08;;;4.72;;
45033;SDS011;30771;47.988;-4.186;2023-12-04T02:56:20;35.33;;;3.92;;
45033;SDS011;30771;47.988;-4.186;2023-12-04T02:58:47;32.13;;;4.40;;
45033;SDS011;30771;47.988;-4.186;2023-12-04T03:01:14;39.83;;;4.55;;
45033;SDS011;30771;47.988;-4.186;2023-12-04T03:03:41;30.80;;;4.40;;
45033;SDS011;30771;47.988;-4.186;2023-12-04T03:06:08;38.42;;;4.43;;
45033;SDS011;30771;47.988;-4.186;2023-12-04T03:08:35;35.58;;;3.75;;
45033;SDS011;30771;47.988;-4.186;2023-12-04T03:11:02;38.58;;;4.80;;
45033;SDS011;30771;47.988;-4.186;2023-12-04T03:13:29;33.72;;;4.38;;
45033;SDS011;30771;47.988;-4.186;2023-12-04T03:15:56;37.42;;;4.93;;
45033;SDS011;30771;47.988;-4.186;2023-12-04T03:18:23;34.05;;;4.68;;
45033;SDS011;30771;47.988;-4.186;2023-12-04T03:20:50;33.30;;;4.28;;
45033;SDS011;30771;47.988;-4.186;2023-12-04T03:23:16;38.83;;;5.32;;
45033;SDS011;30771;47.988;-4.186;2023-12-04T03:25:43;31.88;;;4.35;;
45033;SDS011;30771;47.988;-4.186;2023-12-04T03:28:09;35.05;;;3.88;;
45033;SDS011;30771;47.988;-4.186;2023-12-04T03:30:36;31.13;;;3.70;;
45033;SDS011;30771;47.988;-4.186;2023-12-04T03:33:03;34.35;;;3.90;;
45033;SDS011;30771;47.988;-4.186;2023-12-04T03:35:30;36.90;;;4.47;;
45033;SDS011;30771;47.988;-4.186;2023-12-04T03:37:56;38.15;;;3.22;;
45033;SDS011;30771;47.988;-4.186;2023-12-04T03:40:23;34.47;;;3.72;;
45033;SDS011;30771;47.988;-4.186;2023-12-04T03:42:50;31.42;;;3.65;;
45033;SDS011;30771;47.988;-4.186;2023-12-04T03:45:17;28.88;;;4.03;;
45033;SDS011;30771;47.988;-4.186;2023-12-04T03:47:43;27.23;;;4.78;;
45033;SDS011;30771;47.988;-4.186;2023-12-04T03:50:10;41.13;;;3.85;;
45033;SDS011;30771;47.988;-4.186;2023-12-04T03:52:37;27.80;;;3.47;;
45033;SDS011;30771;47.988;-4.186;2023-12-04T03:55:04;26.67;;;2.97;;
45033;SDS011;30771;47.988;-4.186;2023-12-04T03:57:31;24.35;;;2.88;;
45033;SDS011;30771;47.988;-4.186;2023-12-04T03:59:57;16.35;;;2.28;;
45033;SDS011;30771;47.988;-4.186;2023-12-04T04:02:24;18.17;;;2.67;;
45033;SDS011;30771;47.988;-4.186;2023-12-04T04:04:51;19.75;;;2.15;;
45033;SDS011;30771;47.988;-4.186;2023-12-04T04:07:17;24.38;;;2.00;;
45033;SDS011;30771;47.988;-4.186;2023-12-04T04:09:44;16.67;;;1.77;;
45033;SDS011;30771;47.988;-4.186;2023-12-04T04:12:11;20.17;;;2.70;;
45033;SDS011;30771;47.988;-4.186;2023-12-04T04:14:37;22.30;;;3.30;;
45033;SDS011;30771;47.988;-4.186;2023-12-04T04:17:04;17.88;;;2.30;;
45033;SDS011;30771;47.988;-4.186;2023-12-04T04:19:31;17.92;;;2.63;;
45033;SDS011;30771;47.988;-4.186;2023-12-04T04:21:58;23.52;;;3.08;;
45033;SDS011;30771;47.988;-4.186;2023-12-04T04:24:24;27.95;;;2.83;;
45033;SDS011;30771;47.988;-4.186;2023-12-04T04:26:51;26.40;;;2.72;;
45033;SDS011;30771;47.988;-4.186;2023-12-04T04:29:18;27.35;;;3.05;;
45033;SDS011;30771;47.988;-4.186;2023-12-04T04:31:44;35.08;;;4.25;;
45033;SDS011;30771;47.988;-4.186;2023-12-04T04:34:11;33.85;;;4.22;;
45033;SDS011;30771;47.988;-4.186;2023-12-04T04:36:38;37.28;;;4.63;;
45033;SDS011;30771;47.988;-4.186;2023-12-04T04:39:04;42.20;;;4.93;;
45033;SDS011;30771;47.988;-4.186;2023-12-04T04:41:31;27.60;;;3.45;;
45033;SDS011;30771;47.988;-4.186;2023-12-04T04:43:57;33.30;;;3.17;;
45033;SDS011;30771;47.988;-4.186;2023-12-04T04:46:24;29.52;;;3.72;;
45033;SDS011;30771;47.988;-4.186;2023-12-04T04:48:51;24.10;;;3.80;;
45033;SDS011;30771;47.988;-4.186;2023-12-04T04:51:18;51.70;;;4.70;;
45033;SDS011;30771;47.988;-4.186;2023-12-04T04:53:44;35.00;;;3.67;;
45033;SDS011;30771;47.988;-4.186;2023-12-04T04:56:11;33.95;;;3.67;;
45033;SDS011;30771;47.988;-4.186;2023-12-04T04:58:37;27.33;;;3.70;;
45033;SDS011;30771;47.988;-4.186;2023-12-04T05:01:04;25.08;;;3.33;;
45033;SDS011;30771;47.988;-4.186;2023-12-04T05:03:31;23.02;;;2.63;;
45033;SDS011;30771;47.988;-4.186;2023-12-04T05:05:58;21.77;;;2.42;;
45033;SDS011;30771;47.988;-4.186;2023-12-04T05:08:24;22.05;;;3.13;;
45033;SDS011;30771;47.988;-4.186;2023-12-04T05:10:51;22.17;;;2.88;;
45033;SDS011;30771;47.988;-4.186;2023-12-04T05:13:18;23.60;;;2.78;;
45033;SDS011;30771;47.988;-4.186;2023-12-04T05:15:44;22.88;;;2.50;;
45033;SDS011;30771;47.988;-4.186;2023-12-04T05:18:11;26.98;;;3.30;;
45033;SDS011;30771;47.988;-4.186;2023-12-04T05:20:38;20.73;;;2.92;;
45033;SDS011;30771;47.988;-4.186;2023-12-04T05:23:04;35.67;;;2.83;;
45033;SDS011;30771;47.988;-4.186;2023-12-04T05:25:31;25.77;;;3.25;;
45033;SDS011;30771;47.988;-4.186;2023-12-04T05:28:09;26.10;;;2.65;;
45033;SDS011;30771;47.988;-4.186;2023-12-04T05:30:36;21.80;;;2.97;;
45033;SDS011;30771;47.988;-4.186;2023-12-04T05:33:03;32.22;;;4.30;;
45033;SDS011;30771;47.988;-4.186;2023-12-04T05:35:29;32.35;;;2.85;;
45033;SDS011;30771;47.988;-4.186;2023-12-04T05:37:56;25.95;;;3.08;;
45033;SDS011;30771;47.988;-4.186;2023-12-04T05:40:23;23.80;;;2.78;;
45033;SDS011;30771;47.988;-4.186;2023-12-04T05:42:49;18.70;;;2.45;;
45033;SDS011;30771;47.988;-4.186;2023-12-04T05:45:16;21.10;;;3.28;;
45033;SDS011;30771;47.988;-4.186;2023-12-04T05:47:43;25.95;;;3.50;;
45033;SDS011;30771;47.988;-4.186;2023-12-04T05:50:10;25.15;;;2.65;;
45033;SDS011;30771;47.988;-4.186;2023-12-04T05:52:36;16.65;;;2.20;;
45033;SDS011;30771;47.988;-4.186;2023-12-04T05:55:03;21.25;;;2.13;;
45033;SDS011;30771;47.988;-4.186;2023-12-04T05:57:30;23.33;;;3.13;;
45033;SDS011;30771;47.988;-4.186;2023-12-04T05:59:57;21.80;;;2.70;;
45033;SDS011;30771;47.988;-4.186;2023-12-04T06:02:23;17.38;;;2.67;;
45033;SDS011;30771;47.988;-4.186;2023-12-04T06:04:50;36.35;;;3.90;;
45033;SDS011;30771;47.988;-4.186;2023-12-04T06:07:17;26.95;;;3.38;;
45033;SDS011;30771;47.988;-4.186;2023-12-04T06:09:43;26.45;;;2.58;;
45033;SDS011;30771;47.988;-4.186;2023-12-04T06:12:10;26.05;;;3.88;;
45033;SDS011;30771;47.988;-4.186;2023-12-04T06:14:37;39.03;;;3.85;;
45033;SDS011;30771;47.988;-4.186;2023-12-04T06:17:03;28.80;;;2.92;;
45033;SDS011;30771;47.988;-4.186;2023-12-04T06:19:30;29.27;;;3.92;;
45033;SDS011;30771;47.988;-4.186;2023-12-04T06:21:57;29.35;;;3.65;;
45033;SDS011;30771;47.988;-4.186;2023-12-04T06:24:24;23.50;;;2.90;;
45033;SDS011;30771;47.988;-4.186;2023-12-04T06:26:50;29.83;;;4.13;;
45033;SDS011;30771;47.988;-4.186;2023-12-04T06:29:18;29.33;;;3.70;;
45033;SDS011;30771;47.988;-4.186;2023-12-04T06:31:45;22.83;;;3.33;;
45033;SDS011;30771;47.988;-4.186;2023-12-04T06:34:11;34.75;;;3.58;;
45033;SDS011;30771;47.988;-4.186;2023-12-04T06:36:38;33.25;;;3.78;;
45033;SDS011;30771;47.988;-4.186;2023-12-04T06:39:06;26.15;;;3.55;;
45033;SDS011;30771;47.988;-4.186;2023-12-04T06:41:36;31.27;;;3.85;;
45033;SDS011;30771;47.988;-4.186;2023-12-04T06:44:03;24.40;;;3.05;;
45033;SDS011;30771;47.988;-4.186;2023-12-04T06:46:30;33.05;;;4.13;;
45033;SDS011;30771;47.988;-4.186;2023-12-04T06:49:00;36.53;;;4.45;;
45033;SDS011;30771;47.988;-4.186;2023-12-04T06:51:37;28.17;;;3.45;;
45033;SDS011;30771;47.988;-4.186;2023-12-04T06:54:04;23.30;;;3.40;;
45033;SDS011;30771;47.988;-4.186;2023-12-04T06:56:31;30.63;;;3.78;;
45033;SDS011;30771;47.988;-4.186;2023-12-04T06:58:58;34.88;;;5.05;;
45033;SDS011;30771;47.988;-4.186;2023-12-04T07:01:24;33.85;;;4.82;;
45033;SDS011;30771;47.988;-4.186;2023-12-04T07:03:51;35.55;;;5.25;;
45033;SDS011;30771;47.988;-4.186;2023-12-04T07:06:18;27.15;;;3.60;;
45033;SDS011;30771;47.988;-4.186;2023-12-04T07:08:45;30.35;;;4.35;;
45033;SDS011;30771;47.988;-4.186;2023-12-04T07:11:11;38.75;;;3.85;;
45033;SDS011;30771;47.988;-4.186;2023-12-04T07:13:38;34.17;;;4.40;;
45033;SDS011;30771;47.988;-4.186;2023-12-04T07:16:07;43.53;;;4.28;;
45033;SDS011;30771;47.988;-4.186;2023-12-04T07:18:34;27.08;;;3.97;;
45033;SDS011;30771;47.988;-4.186;2023-12-04T07:21:01;32.53;;;3.20;;
45033;SDS011;30771;47.988;-4.186;2023-12-04T07:23:27;24.90;;;2.95;;
45033;SDS011;30771;47.988;-4.186;2023-12-04T07:25:54;23.83;;;3.17;;
45033;SDS011;30771;47.988;-4.186;2023-12-04T07:28:20;19.60;;;2.13;;
45033;SDS011;30771;47.988;-4.186;2023-12-04T07:30:47;23.58;;;2.30;;
45033;SDS011;30771;47.988;-4.186;2023-12-04T07:33:14;21.13;;;2.97;;
45033;SDS011;30771;47.988;-4.186;2023-12-04T07:35:41;21.80;;;2.10;;
45033;SDS011;30771;47.988;-4.186;2023-12-04T07:38:07;18.80;;;2.47;;
45033;SDS011;30771;47.988;-4.186;2023-12-04T07:40:34;16.35;;;2.33;;
45033;SDS011;30771;47.988;-4.186;2023-12-04T07:43:00;21.08;;;2.85;;
45033;SDS011;30771;47.988;-4.186;2023-12-04T07:45:27;21.05;;;2.38;;
45033;SDS011;30771;47.988;-4.186;2023-12-04T07:47:54;22.15;;;2.30;;
45033;SDS011;30771;47.988;-4.186;2023-12-04T07:50:21;21.30;;;2.70;;
45033;SDS011;30771;47.988;-4.186;2023-12-04T07:52:47;28.02;;;2.97;;
45033;SDS011;30771;47.988;-4.186;2023-12-04T07:55:14;21.13;;;2.72;;
45033;SDS011;30771;47.988;-4.186;2023-12-04T07:57:41;24.17;;;2.53;;
45033;SDS011;30771;47.988;-4.186;2023-12-04T08:00:07;12.02;;;1.77;;
45033;SDS011;30771;47.988;-4.186;2023-12-04T08:02:34;9.70;;;1.60;;
45033;SDS011;30771;47.988;-4.186;2023-12-04T08:05:01;20.30;;;2.30;;
45033;SDS011;30771;47.988;-4.186;2023-12-04T08:07:27;13.35;;;2.22;;
45033;SDS011;30771;47.988;-4.186;2023-12-04T08:09:54;14.02;;;2.22;;
45033;SDS011;30771;47.988;-4.186;2023-12-04T08:12:21;14.90;;;1.58;;
45033;SDS011;30771;47.988;-4.186;2023-12-04T08:14:48;13.27;;;1.45;;
45033;SDS011;30771;47.988;-4.186;2023-12-04T08:17:14;14.30;;;1.90;;
45033;SDS011;30771;47.988;-4.186;2023-12-04T08:19:41;22.15;;;2.03;;
45033;SDS011;30771;47.988;-4.186;2023-12-04T08:22:08;18.23;;;2.95;;
45033;SDS011;30771;47.988;-4.186;2023-12-04T08:24:34;15.63;;;1.55;;
45033;SDS011;30771;47.988;-4.186;2023-12-04T08:27:01;12.57;;;1.77;;
45033;SDS011;30771;47.988;-4.186;2023-12-04T08:29:28;14.93;;;1.60;;
45033;SDS011;30771;47.988;-4.186;2023-12-04T08:31:54;10.57;;;2.17;;
45033;SDS011;30771;47.988;-4.186;2023-12-04T08:34:21;18.15;;;2.08;;
45033;SDS011;30771;47.988;-4.186;2023-12-04T08:36:47;19.35;;;2.53;;
45033;SDS011;30771;47.988;-4.186;2023-12-04T08:39:14;18.85;;;2.40;;
45033;SDS011;30771;47.988;-4.186;2023-12-04T08:41:44;21.13;;;1.92;;
45033;SDS011;30771;47.988;-4.186;2023-12-04T08:44:26;28.92;;;2.78;;
45033;SDS011;30771;47.988;-4.186;2023-12-04T08:46:52;20.25;;;3.22;;
45033;SDS011;30771;47.988;-4.186;2023-12-04T08:49:19;22.27;;;3.38;;
45033;SDS011;30771;47.988;-4.186;2023-12-04T08:51:46;28.65;;;3.45;;
45033;SDS011;30771;47.988;-4.186;2023-12-04T08:54:13;18.67;;;2.42;;
45033;SDS011;30771;47.988;-4.186;2023-12-04T08:56:43;18.90;;;2.88;;
45033;SDS011;30771;47.988;-4.186;2023-12-04T08:59:10;22.50;;;3.28;;
45033;SDS011;30771;47.988;-4.186;2023-12-04T09:01:36;25.10;;;3.42;;
45033;SDS011;30771;47.988;-4.186;2023-12-04T09:04:03;20.63;;;3.03;;
45033;SDS011;30771;47.988;-4.186;2023-12-04T09:06:31;31.52;;;3.63;;
45033;SDS011;30771;47.988;-4.186;2023-12-04T09:09:01;25.02;;;4.07;;
45033;SDS011;30771;47.988;-4.186;2023-12-04T09:11:36;17.85;;;2.50;;
45033;SDS011;30771;47.988;-4.186;2023-12-04T09:14:07;16.85;;;2.28;;
45033;SDS011;30771;47.988;-4.186;2023-12-04T09:16:35;25.63;;;2.97;;
45033;SDS011;30771;47.988;-4.186;2023-12-04T09:19:01;27.10;;;4.28;;
45033;SDS011;30771;47.988;-4.186;2023-12-04T09:21:28;28.48;;;3.10;;
45033;SDS011;30771;47.988;-4.186;2023-12-04T09:23:55;20.30;;;2.83;;
45033;SDS011;30771;47.988;-4.186;2023-12-04T09:26:21;16.55;;;2.03;;
45033;SDS011;30771;47.988;-4.186;2023-12-04T09:28:48;16.55;;;2.08;;
45033;SDS011;30771;47.988;-4.186;2023-12-04T09:31:16;13.15;;;1.85;;
45033;SDS011;30771;47.988;-4.186;2023-12-04T09:33:42;18.08;;;1.80;;
45033;SDS011;30771;47.988;-4.186;2023-12-04T09:36:09;10.60;;;1.77;;
45033;SDS011;30771;47.988;-4.186;2023-12-04T09:38:36;18.83;;;1.90;;
45033;SDS011;30771;47.988;-4.186;2023-12-04T09:41:03;17.17;;;2.15;;
45033;SDS011;30771;47.988;-4.186;2023-12-04T09:43:30;20.30;;;2.75;;
45033;SDS011;30771;47.988;-4.186;2023-12-04T09:45:59;15.68;;;2.25;;
45033;SDS011;30771;47.988;-4.186;2023-12-04T09:48:25;18.42;;;2.15;;
45033;SDS011;30771;47.988;-4.186;2023-12-04T09:50:53;18.15;;;1.90;;
45033;SDS011;30771;47.988;-4.186;2023-12-04T09:53:22;19.15;;;2.35;;
45033;SDS011;30771;47.988;-4.186;2023-12-04T09:55:49;18.13;;;2.58;;
45033;SDS011;30771;47.988;-4.186;2023-12-04T09:58:18;24.20;;;2.85;;
45033;SDS011;30771;47.988;-4.186;2023-12-04T10:00:46;15.23;;;1.98;;
45033;SDS011;30771;47.988;-4.186;2023-12-04T10:03:13;22.58;;;2.50;;
45033;SDS011;30771;47.988;-4.186;2023-12-04T10:05:43;17.77;;;2.20;;
45033;SDS011;30771;47.988;-4.186;2023-12-04T10:08:10;18.88;;;2.63;;
45033;SDS011;30771;47.988;-4.186;2023-12-04T10:10:37;19.25;;;2.85;;
45033;SDS011;30771;47.988;-4.186;2023-12-04T10:13:03;28.70;;;3.03;;
45033;SDS011;30771;47.988;-4.186;2023-12-04T10:15:31;26.60;;;3.58;;
45033;SDS011;30771;47.988;-4.186;2023-12-04T10:17:57;22.08;;;2.88;;
45033;SDS011;30771;47.988;-4.186;2023-12-04T10:20:24;21.27;;;2.35;;
45033;SDS011;30771;47.988;-4.186;2023-12-04T10:23:00;14.90;;;2.10;;
45033;SDS011;30771;47.988;-4.186;2023-12-04T10:25:28;17.73;;;2.40;;
45033;SDS011;30771;47.988;-4.186;2023-12-04T10:28:09;18.77;;;2.45;;
45033;SDS011;30771;47.988;-4.186;2023-12-04T10:30:38;16.27;;;2.22;;
45033;SDS011;30771;47.988;-4.186;2023-12-04T10:33:05;15.63;;;2.42;;
45033;SDS011;30771;47.988;-4.186;2023-12-04T10:35:33;14.45;;;2.28;;
45033;SDS011;30771;47.988;-4.186;2023-12-04T10:38:00;23.38;;;2.30;;
45033;SDS011;30771;47.988;-4.186;2023-12-04T10:40:29;20.70;;;1.98;;
45033;SDS011;30771;47.988;-4.186;2023-12-04T10:45:35;24.90;;;2.80;;
45033;SDS011;30771;47.988;-4.186;2023-12-04T10:48:06;13.95;;;1.83;;
45033;SDS011;30771;47.988;-4.186;2023-12-04T10:50:34;16.10;;;2.22;;
45033;SDS011;30771;47.988;-4.186;2023-12-04T10:53:01;13.10;;;2.20;;
45033;SDS011;30771;47.988;-4.186;2023-12-04T10:55:28;18.20;;;2.63;;
45033;SDS011;30771;47.988;-4.186;2023-12-04T10:57:55;23.23;;;2.88;;
45033;SDS011;30771;47.988;-4.186;2023-12-04T11:00:22;25.60;;;3.60;;
45033;SDS011;30771;47.988;-4.186;2023-12-04T11:02:49;21.17;;;3.08;;
45033;SDS011;30771;47.988;-4.186;2023-12-04T11:05:20;15.50;;;2.15;;
45033;SDS011;30771;47.988;-4.186;2023-12-04T11:07:51;11.25;;;1.98;;
45033;SDS011;30771;47.988;-4.186;2023-12-04T11:10:48;14.00;;;1.73;;
45033;SDS011;30771;47.988;-4.186;2023-12-04T11:13:27;17.23;;;3.05;;
45033;SDS011;30771;47.988;-4.186;2023-12-04T11:15:56;19.05;;;2.30;;
45033;SDS011;30771;47.988;-4.186;2023-12-04T11:18:31;19.23;;;2.53;;
45033;SDS011;30771;47.988;-4.186;2023-12-04T11:21:04;21.73;;;2.42;;
45033;SDS011;30771;47.988;-4.186;2023-12-04T11:23:34;29.60;;;3.20;;
45033;SDS011;30771;47.988;-4.186;2023-12-04T11:26:01;25.50;;;3.63;;
45033;SDS011;30771;47.988;-4.186;2023-12-04T11:30:57;22.10;;;2.95;;
45033;SDS011;30771;47.988;-4.186;2023-12-04T11:33:24;25.92;;;3.17;;
45033;SDS011;30771;47.988;-4.186;2023-12-04T11:35:51;26.77;;;3.20;;
45033;SDS011;30771;47.988;-4.186;2023-12-04T11:38:17;20.30;;;2.33;;
45033;SDS011;30771;47.988;-4.186;2023-12-04T11:40:45;15.63;;;2.65;;
45033;SDS011;30771;47.988;-4.186;2023-12-04T11:43:23;26.20;;;2.97;;
45033;SDS011;30771;47.988;-4.186;2023-12-04T11:45:52;21.73;;;3.53;;
45033;SDS011;30771;47.988;-4.186;2023-12-04T11:48:22;31.05;;;3.13;;
45033;SDS011;30771;47.988;-4.186;2023-12-04T11:50:49;17.55;;;2.90;;
45033;SDS011;30771;47.988;-4.186;2023-12-04T11:53:16;20.77;;;3.00;;
45033;SDS011;30771;47.988;-4.186;2023-12-04T11:55:43;27.10;;;2.97;;
45033;SDS011;30771;47.988;-4.186;2023-12-04T11:58:10;22.70;;;3.70;;
45033;SDS011;30771;47.988;-4.186;2023-12-04T12:00:38;20.92;;;2.80;;
45033;SDS011;30771;47.988;-4.186;2023-12-04T12:03:07;14.07;;;2.78;;
45033;SDS011;30771;47.988;-4.186;2023-12-04T12:05:48;14.95;;;2.67;;
45033;SDS011;30771;47.988;-4.186;2023-12-04T12:08:16;20.75;;;2.70;;
45033;SDS011;30771;47.988;-4.186;2023-12-04T12:10:43;18.75;;;2.42;;
45033;SDS011;30771;47.988;-4.186;2023-12-04T12:13:10;10.55;;;2.30;;
45033;SDS011;30771;47.988;-4.186;2023-12-04T12:15:38;18.33;;;2.65;;
45033;SDS011;30771;47.988;-4.186;2023-12-04T12:18:05;18.55;;;2.40;;
45033;SDS011;30771;47.988;-4.186;2023-12-04T12:20:36;19.23;;;3.45;;
45033;SDS011;30771;47.988;-4.186;2023-12-04T12:23:03;22.50;;;2.15;;
45033;SDS011;30771;47.988;-4.186;2023-12-04T12:25:29;17.23;;;2.95;;
45033;SDS011;30771;47.988;-4.186;2023-12-04T12:27:56;21.30;;;3.03;;
45033;SDS011;30771;47.988;-4.186;2023-12-04T12:30:23;17.27;;;2.50;;
45033;SDS011;30771;47.988;-4.186;2023-12-04T12:32:50;19.38;;;2.70;;
45033;SDS011;30771;47.988;-4.186;2023-12-04T12:35:17;22.85;;;3.42;;
45033;SDS011;30771;47.988;-4.186;2023-12-04T12:37:43;21.45;;;3.40;;
45033;SDS011;30771;47.988;-4.186;2023-12-04T12:40:10;16.05;;;2.65;;
45033;SDS011;30771;47.988;-4.186;2023-12-04T12:42:37;19.88;;;2.47;;
45033;SDS011;30771;47.988;-4.186;2023-12-04T12:45:04;15.00;;;1.98;;
45033;SDS011;30771;47.988;-4.186;2023-12-04T12:47:31;16.48;;;2.47;;
45033;SDS011;30771;47.988;-4.186;2023-12-04T12:50:00;20.50;;;2.83;;
45033;SDS011;30771;47.988;-4.186;2023-12-04T12:52:27;17.48;;;2.80;;
45033;SDS011;30771;47.988;-4.186;2023-12-04T12:54:54;14.60;;;2.67;;
45033;SDS011;30771;47.988;-4.186;2023-12-04T12:57:20;13.70;;;2.35;;
45033;SDS011;30771;47.988;-4.186;2023-12-04T12:59:47;14.80;;;2.10;;
45033;SDS011;30771;47.988;-4.186;2023-12-04T13:02:14;12.63;;;1.92;;
45033;SDS011;30771;47.988;-4.186;2023-12-04T13:04:41;20.13;;;2.85;;
45033;SDS011;30771;47.988;-4.186;2023-12-04T13:09:36;22.10;;;2.88;;
45033;SDS011;30771;47.988;-4.186;2023-12-04T13:12:03;17.27;;;2.40;;
45033;SDS011;30771;47.988;-4.186;2023-12-04T13:14:32;10.52;;;2.08;;
45033;SDS011;30771;47.988;-4.186;2023-12-04T13:17:00;12.90;;;2.78;;
45033;SDS011;30771;47.988;-4.186;2023-12-04T13:19:26;16.83;;;3.00;;
45033;SDS011;30771;47.988;-4.186;2023-12-04T13:21:53;11.65;;;2.20;;
45033;SDS011;30771;47.988;-4.186;2023-12-04T13:24:20;12.68;;;2.03;;
45033;SDS011;30771;47.988;-4.186;2023-12-04T13:26:47;10.10;;;2.00;;
45033;SDS011;30771;47.988;-4.186;2023-12-04T13:29:13;20.80;;;2.45;;
45033;SDS011;30771;47.988;-4.186;2023-12-04T13:31:40;17.65;;;2.33;;
45033;SDS011;30771;47.988;-4.186;2023-12-04T13:34:07;14.32;;;2.35;;
45033;SDS011;30771;47.988;-4.186;2023-12-04T13:36:34;14.25;;;2.67;;
45033;SDS011;30771;47.988;-4.186;2023-12-04T13:39:00;27.45;;;2.97;;
45033;SDS011;30771;47.988;-4.186;2023-12-04T13:41:27;18.17;;;2.92;;
45033;SDS011;30771;47.988;-4.186;2023-12-04T13:43:53;17.88;;;2.95;;
45033;SDS011;30771;47.988;-4.186;2023-12-04T13:46:20;17.50;;;2.42;;
45033;SDS011;30771;47.988;-4.186;2023-12-04T13:48:47;14.50;;;2.45;;
45033;SDS011;30771;47.988;-4.186;2023-12-04T13:51:13;21.02;;;2.97;;
45033;SDS011;30771;47.988;-4.186;2023-12-04T13:53:40;23.63;;;2.58;;
45033;SDS011;30771;47.988;-4.186;2023-12-04T13:56:07;17.00;;;2.47;;
45033;SDS011;30771;47.988;-4.186;2023-12-04T13:58:34;23.02;;;2.92;;
45033;SDS011;30771;47.988;-4.186;2023-12-04T14:01:01;21.80;;;3.03;;
45033;SDS011;30771;47.988;-4.186;2023-12-04T14:03:28;20.05;;;3.08;;
45033;SDS011;30771;47.988;-4.186;2023-12-04T14:05:55;20.60;;;2.67;;
45033;SDS011;30771;47.988;-4.186;2023-12-04T14:08:22;18.88;;;3.13;;
45033;SDS011;30771;47.988;-4.186;2023-12-04T14:10:50;18.88;;;3.25;;
45033;SDS011;30771;47.988;-4.186;2023-12-04T14:13:17;19.40;;;3.15;;
45033;SDS011;30771;47.988;-4.186;2023-12-04T14:15:43;21.70;;;3.47;;
45033;SDS011;30771;47.988;-4.186;2023-12-04T14:18:10;19.95;;;2.60;;
45033;SDS011;30771;47.988;-4.186;2023-12-04T14:20:37;15.52;;;2.83;;
45033;SDS011;30771;47.988;-4.186;2023-12-04T14:23:03;16.20;;;2.35;;
45033;SDS011;30771;47.988;-4.186;2023-12-04T14:25:30;17.13;;;1.90;;
45033;SDS011;30771;47.988;-4.186;2023-12-04T14:27:57;18.77;;;2.08;;
45033;SDS011;30771;47.988;-4.186;2023-12-04T14:30:24;13.23;;;2.17;;